Archival Weather

Downtown Manhattan/Wall St

New York, Downtown Manhattan/Wall St (KJRB)

Report from: Friday, February 23, 2024 9:56 PM EST
Current time: Wednesday, May 29, 2024 9:18 PM EDT

Current weather – Weather history – Daily summaries
Weather forecast

Temperature6.7°C (44.1°F)
Wind chill5.3°C (41.5°F)
Dew point3.3°C (37.9°F)
Winds 4 kts (2.1 m/s, 4.6 mph) West (270°)
Visibility10 mi. (16.1 km)
Clouds Sky clear
Altimeter29.49 in.Hg (999 mB)
Relative humidity79 %
Density altitude-387 ft. (-118 m)
Sea-level pressure99.9 kPa (999 mB, 29.49 in.Hg)
Remarks Fully automated report
System requires maintenance
Automated weather observing station with precipitation discriminator
Precipitation sensor not operating
Pressure rising more quickly
Flight conditions Visual Meteorological Conditions
Raw dataKJRB 240256Z AUTO 27004KT 10SM CLR 07/03 A2949 RMK AO2 SLP987 6//// T00670033 53001 PNO $
An error has occurred. This application may no longer respond until reloaded. Reload 🗙